Time;durP1;ratioP1;P1;durP2;ratioP2;P2;SDS_P1;SDS_P2;PMS_P1;PMS_P2;Temp;Humidity;BMP_temperature;BMP_pressure;BME280_temperature;BME280_humidity;BME280_pressure;Samples;Min_cycle;Max_cycle;Signal;HPM_P1;HPM_P2
2022/11/24 00:01:18;;;;;;;;;4.00;4.00;;;;;20.14;52.64;100291.84;105695;1281;19234;-61
2022/11/24 00:03:46;;;;;;;;;4.00;4.00;;;;;20.14;52.67;100294.52;105666;1271;19438;-62
2022/11/24 00:06:13;;;;;;;;;4.00;4.00;;;;;20.14;52.92;100293.39;105738;1297;20151;-61
2022/11/24 00:08:41;;;;;;;;;4.00;4.00;;;;;20.14;52.50;100293.02;105668;1279;19245;-62
2022/11/24 00:11:09;;;;;;;;;4.00;4.00;;;;;20.13;52.78;100289.90;105662;1280;22829;-61
2022/11/24 00:13:38;;;;;;;;;4.00;4.00;;;;;20.13;52.61;100286.77;105671;1279;21680;-61
2022/11/24 00:16:06;;;;;;;;;7.00;5.00;;;;;20.13;52.54;100286.06;105655;1279;23591;-61
2022/11/24 00:18:33;;;;;;;;;5.00;5.00;;;;;20.13;52.57;100295.69;105500;1297;156654;-61
2022/11/24 00:21:01;;;;;;;;;5.00;4.00;;;;;20.13;52.63;100297.77;105755;1293;20341;-61
2022/11/24 00:23:29;;;;;;;;;4.00;2.00;;;;;20.13;52.65;100302.05;105720;1297;19215;-61
2022/11/24 00:25:57;;;;;;;;;5.00;4.00;;;;;20.13;52.64;100298.66;105653;1271;19473;-61
2022/11/24 00:28:25;;;;;;;;;4.00;4.00;;;;;20.14;52.75;100301.22;105644;1297;20418;-62
2022/11/24 00:30:53;;;;;;;;;2.00;2.00;;;;;20.12;52.83;100295.64;105665;1297;19089;-62
2022/11/24 00:33:21;;;;;;;;;4.00;4.00;;;;;20.12;52.65;100299.65;105660;1279;19472;-61
2022/11/24 00:35:48;;;;;;;;;4.00;4.00;;;;;20.12;52.74;100298.55;105701;1279;20272;-62
2022/11/24 00:38:16;;;;;;;;;4.00;4.00;;;;;20.13;52.36;100297.73;105674;1295;19913;-63
2022/11/24 00:40:44;;;;;;;;;4.00;2.00;;;;;20.12;52.43;100293.70;105653;1279;21116;-62
2022/11/24 00:43:12;;;;;;;;;4.00;4.00;;;;;20.11;52.62;100291.30;105647;1287;20282;-62
2022/11/24 00:45:40;;;;;;;;;5.00;4.00;;;;;20.11;52.72;100291.05;105692;1279;24663;-63
2022/11/24 00:48:08;;;;;;;;;2.00;2.00;;;;;20.11;52.42;100293.91;105748;1298;19375;-62
2022/11/24 00:50:35;;;;;;;;;4.00;4.00;;;;;20.11;52.56;100292.14;105654;1272;20287;-63
2022/11/24 00:53:03;;;;;;;;;2.00;2.00;;;;;20.11;52.41;100293.27;105659;1271;19423;-62
2022/11/24 00:55:31;;;;;;;;;4.00;4.00;;;;;20.10;52.40;100290.25;105674;1287;19699;-62
2022/11/24 00:57:58;;;;;;;;;5.00;4.00;;;;;20.10;52.58;100292.76;105652;1297;20478;-62
2022/11/24 01:00:26;;;;;;;;;5.00;4.00;;;;;20.10;52.39;100287.42;105696;1289;19741;-61
2022/11/24 01:02:54;;;;;;;;;5.00;5.00;;;;;20.10;52.33;100291.94;105691;1297;19425;-61
2022/11/24 01:05:22;;;;;;;;;4.00;2.00;;;;;20.10;52.22;100298.08;105646;1279;20162;-62
2022/11/24 01:07:49;;;;;;;;;3.00;3.00;;;;;20.10;52.26;100306.96;105651;1281;19179;-62
2022/11/24 01:10:17;;;;;;;;;4.00;4.00;;;;;20.09;52.24;100309.05;105648;1279;20941;-62
2022/11/24 01:12:45;;;;;;;;;5.00;4.50;;;;;20.10;52.24;100309.55;105659;1281;20590;-62
2022/11/24 01:15:13;;;;;;;;;5.00;4.00;;;;;20.09;52.55;100310.54;105692;1297;19225;-62
2022/11/24 01:17:40;;;;;;;;;4.00;4.00;;;;;20.08;52.39;100314.44;105677;1271;19294;-62
2022/11/24 01:20:08;;;;;;;;;4.50;4.00;;;;;20.08;52.48;100316.94;105761;1279;21435;-61
2022/11/24 01:22:37;;;;;;;;;7.00;5.00;;;;;20.09;52.20;100316.91;105626;1297;19321;-62
2022/11/24 01:25:04;;;;;;;;;2.00;2.00;;;;;20.09;52.35;100312.19;105683;1289;19692;-62
2022/11/24 01:27:32;;;;;;;;;4.00;2.00;;;;;20.10;52.40;100309.52;105690;1286;23081;-62
2022/11/24 01:30:00;;;;;;;;;4.00;4.00;;;;;20.09;52.53;100302.34;105704;1300;21684;-62
2022/11/24 01:32:28;;;;;;;;;5.00;5.00;;;;;20.09;52.30;100299.11;105648;1286;19636;-61
2022/11/24 01:34:56;;;;;;;;;;;;;;;20.08;52.14;100298.48;105658;1272;22581;-62
2022/11/24 01:37:23;;;;;;;;;5.00;5.00;;;;;20.08;52.16;100300.45;105746;1272;19900;-62
2022/11/24 01:39:51;;;;;;;;;4.00;2.00;;;;;20.08;52.21;100299.61;105720;1272;19660;-62
2022/11/24 01:42:19;;;;;;;;;2.00;2.00;;;;;20.08;52.25;100304.84;105701;1297;22946;-62
2022/11/24 01:44:46;;;;;;;;;4.00;2.00;;;;;20.08;52.23;100306.52;105669;1271;19878;-62
2022/11/24 01:47:14;;;;;;;;;4.00;4.00;;;;;20.06;52.25;100309.77;105649;1279;20850;-62
2022/11/24 01:49:42;;;;;;;;;6.00;5.00;;;;;20.07;52.15;100317.77;105680;1272;20284;-62
2022/11/24 01:52:10;;;;;;;;;4.00;4.00;;;;;20.06;52.32;100318.84;105620;1272;19233;-63
2022/11/24 01:54:38;;;;;;;;;5.00;5.00;;;;;20.07;52.07;100319.30;105609;1279;19408;-63
2022/11/24 01:57:05;;;;;;;;;4.00;4.00;;;;;20.06;52.24;100321.02;105712;1297;20545;-63
2022/11/24 01:59:33;;;;;;;;;4.00;4.00;;;;;20.05;52.38;100313.03;105624;1282;19983;-64
2022/11/24 02:02:01;;;;;;;;;4.00;4.00;;;;;20.06;52.17;100309.50;105657;1275;23510;-63
2022/11/24 02:04:28;;;;;;;;;4.50;4.00;;;;;20.07;52.08;100303.02;105730;1279;20221;-63
2022/11/24 02:06:56;;;;;;;;;2.00;2.00;;;;;20.07;52.04;100303.91;105668;1279;19292;-63
2022/11/24 02:09:24;;;;;;;;;6.00;4.00;;;;;20.06;52.11;100304.15;105677;1272;19321;-64
2022/11/24 02:11:52;;;;;;;;;2.00;2.00;;;;;20.06;51.96;100305.63;105726;1287;21645;-63
2022/11/24 02:14:19;;;;;;;;;4.00;4.00;;;;;20.06;52.18;100306.36;105660;1279;19279;-64
2022/11/24 02:16:47;;;;;;;;;5.00;4.00;;;;;20.06;52.03;100305.90;105596;1271;20821;-63
2022/11/24 02:19:15;;;;;;;;;4.00;4.00;;;;;20.05;52.09;100306.81;105660;1288;20315;-63
2022/11/24 02:21:43;;;;;;;;;4.00;4.00;;;;;20.04;52.09;100306.98;105734;1296;19730;-63
2022/11/24 02:24:10;;;;;;;;;;;;;;;20.04;52.05;100310.05;105664;1296;21000;-61
2022/11/24 02:26:38;;;;;;;;;5.00;2.00;;;;;20.04;52.13;100307.29;105662;1282;20435;-62
2022/11/24 02:29:06;;;;;;;;;4.00;4.00;;;;;20.04;51.99;100305.89;105661;1281;19782;-62
2022/11/24 02:31:33;;;;;;;;;2.00;2.00;;;;;20.04;52.10;100306.91;105704;1288;19345;-61
2022/11/24 02:34:01;;;;;;;;;2.00;2.00;;;;;20.05;51.85;100303.63;105636;1279;20139;-62
2022/11/24 02:36:29;;;;;;;;;4.00;4.00;;;;;20.03;52.19;100303.41;105651;1295;19283;-61
2022/11/24 02:38:57;;;;;;;;;4.00;4.00;;;;;20.04;51.88;100304.43;105651;1271;23965;-61
2022/11/24 02:41:24;;;;;;;;;5.00;5.00;;;;;20.04;52.07;100301.48;105652;1295;22870;-62
2022/11/24 02:43:52;;;;;;;;;;;;;;;20.04;51.86;100302.84;105629;1272;19182;-62
2022/11/24 02:46:19;;;;;;;;;2.00;2.00;;;;;20.04;51.84;100296.48;105973;1279;19089;-63
2022/11/24 02:48:47;;;;;;;;;5.00;4.00;;;;;20.03;52.03;100294.63;105858;1274;21673;-62
2022/11/24 02:51:15;;;;;;;;;4.00;2.00;;;;;20.02;52.03;100292.61;105671;1274;19243;-62
2022/11/24 02:53:43;;;;;;;;;2.00;2.00;;;;;20.03;51.82;100295.13;105637;1295;23008;-62
2022/11/24 02:56:10;;;;;;;;;2.00;2.00;;;;;20.03;51.95;100289.10;105647;1271;20255;-62
2022/11/24 02:58:38;;;;;;;;;5.00;4.00;;;;;20.03;51.79;100295.67;105622;1272;19201;-62
2022/11/24 03:01:06;;;;;;;;;4.00;4.00;;;;;20.03;51.93;100296.56;105687;1289;19164;-62
2022/11/24 03:03:33;;;;;;;;;4.00;4.00;;;;;20.03;51.88;100308.01;105689;1279;20413;-62
2022/11/24 03:06:01;;;;;;;;;4.00;4.00;;;;;20.03;51.83;100314.58;105668;1300;19355;-62
2022/11/24 03:08:29;;;;;;;;;4.00;4.00;;;;;20.02;51.95;100314.20;105610;1295;19733;-62
2022/11/24 03:10:56;;;;;;;;;4.00;4.00;;;;;20.02;51.77;100310.77;105674;1271;20254;-63
2022/11/24 03:13:26;;;;;;;;;4.00;4.00;;;;;20.04;51.92;100315.73;105665;1282;19381;-62
2022/11/24 03:15:54;;;;;;;;;4.00;4.00;;;;;20.01;51.81;100306.91;105673;1297;19449;-63
2022/11/24 03:18:22;;;;;;;;;4.00;4.00;;;;;20.01;51.90;100308.58;105603;1297;20332;-63
2022/11/24 03:20:49;;;;;;;;;4.00;4.00;;;;;20.02;51.71;100312.45;105716;1279;21037;-62
2022/11/24 03:23:17;;;;;;;;;2.00;2.00;;;;;20.01;51.86;100310.34;105672;1282;19653;-63
2022/11/24 03:25:45;;;;;;;;;4.00;3.00;;;;;20.01;51.64;100311.27;105699;1295;21697;-62
2022/11/24 03:28:13;;;;;;;;;4.00;4.00;;;;;20.01;51.56;100310.76;105659;1296;19429;-62
2022/11/24 03:30:40;;;;;;;;;4.00;4.00;;;;;20.01;51.78;100309.33;105635;1282;19565;-61
2022/11/24 03:33:08;;;;;;;;;4.00;4.00;;;;;20.00;51.95;100309.16;105669;1296;23100;-62
2022/11/24 03:35:36;;;;;;;;;4.00;4.00;;;;;20.01;51.93;100311.77;105668;1271;19198;-62
2022/11/24 03:38:03;;;;;;;;;4.00;2.00;;;;;20.00;51.77;100310.59;105658;1272;19400;-62
2022/11/24 03:40:31;;;;;;;;;5.00;5.00;;;;;20.00;51.77;100306.86;105657;1297;20421;-62
2022/11/24 03:42:59;;;;;;;;;3.00;3.00;;;;;19.99;51.72;100296.92;105672;1297;19131;-63
2022/11/24 03:45:26;;;;;;;;;4.00;4.00;;;;;19.99;51.83;100289.85;105630;1288;19552;-63
2022/11/24 03:47:54;;;;;;;;;4.00;2.00;;;;;20.00;51.60;100296.72;105694;1295;21650;-63
2022/11/24 03:50:21;;;;;;;;;4.00;3.00;;;;;20.00;51.55;100301.83;105657;1297;19313;-63
2022/11/24 03:52:49;;;;;;;;;2.00;2.00;;;;;19.99;51.70;100299.15;105639;1297;20937;-62
2022/11/24 03:55:17;;;;;;;;;4.00;4.00;;;;;20.00;51.59;100303.42;105685;1272;20608;-62
2022/11/24 03:57:44;;;;;;;;;4.00;2.00;;;;;19.99;51.81;100304.63;105624;1288;19272;-63
2022/11/24 04:00:12;;;;;;;;;2.00;2.00;;;;;19.99;51.64;100307.10;105736;1297;19455;-63
2022/11/24 04:02:40;;;;;;;;;4.00;4.00;;;;;19.98;51.77;100302.67;105682;1297;20317;-63
2022/11/24 04:05:08;;;;;;;;;3.00;2.00;;;;;19.97;51.84;100304.45;105674;1297;20718;-63
2022/11/24 04:07:36;;;;;;;;;4.00;4.00;;;;;19.97;51.61;100314.86;105783;1272;19302;-63
2022/11/24 04:10:04;;;;;;;;;2.00;2.00;;;;;19.98;51.71;100312.74;105756;1297;20404;-64
2022/11/24 04:15:19;;;;;;;;;5.00;4.00;;;;;19.99;51.61;100313.70;105670;1279;20968;-64
2022/11/24 04:17:47;;;;;;;;;4.00;4.00;;;;;19.98;51.77;100315.56;105679;1281;20264;-62
2022/11/24 04:20:14;;;;;;;;;4.50;4.50;;;;;19.99;51.51;100309.86;105683;1287;23682;-62
2022/11/24 04:22:42;;;;;;;;;4.00;4.00;;;;;19.97;51.71;100317.53;105685;1275;19565;-60
2022/11/24 04:25:10;;;;;;;;;;;;;;;19.98;51.45;100326.30;105702;1279;28910;-62
2022/11/24 04:27:37;;;;;;;;;5.00;4.00;;;;;19.98;51.57;100327.17;105680;1280;19245;-61
2022/11/24 04:30:05;;;;;;;;;4.00;4.00;;;;;19.98;51.49;100325.56;105771;1297;19305;-61
2022/11/24 04:32:33;;;;;;;;;2.00;2.00;;;;;19.98;51.48;100329.64;105659;1279;22986;-61
2022/11/24 04:35:00;;;;;;;;;4.00;4.00;;;;;19.99;51.69;100334.59;105716;1279;19693;-64
2022/11/24 04:37:29;;;;;;;;;2.00;2.00;;;;;19.96;51.52;100340.25;105664;1280;19468;-61
2022/11/24 04:39:56;;;;;;;;;2.00;2.00;;;;;19.96;51.64;100347.41;105706;1282;23608;-61
2022/11/24 04:42:24;;;;;;;;;5.00;5.00;;;;;19.97;51.71;100348.76;105708;1279;19317;-62
2022/11/24 04:44:52;;;;;;;;;;;;;;;19.97;51.55;100349.05;105687;1293;21159;-62
2022/11/24 04:47:19;;;;;;;;;2.00;2.00;;;;;19.98;51.45;100348.41;105694;1289;20113;-62
2022/11/24 04:49:47;;;;;;;;;4.00;4.00;;;;;19.97;51.33;100348.93;105761;1296;19294;-62
2022/11/24 04:52:15;;;;;;;;;;;;;;;19.97;51.28;100362.49;105759;1294;19679;-61
2022/11/24 04:54:42;;;;;;;;;6.00;6.00;;;;;19.97;51.10;100361.92;105672;1297;20375;-61
2022/11/24 04:57:10;;;;;;;;;5.00;5.00;;;;;19.97;51.01;100357.50;105712;1297;19419;-62
2022/11/24 04:59:38;;;;;;;;;6.50;4.00;;;;;19.97;51.05;100362.88;105672;1279;21013;-62
2022/11/24 05:02:06;;;;;;;;;6.00;6.00;;;;;19.96;50.89;100362.73;105672;1297;20316;-62
2022/11/24 05:04:33;;;;;;;;;4.50;4.50;;;;;19.97;51.18;100365.79;105587;1279;19370;-64
2022/11/24 05:07:01;;;;;;;;;5.00;5.00;;;;;19.97;50.99;100370.72;105701;1272;19588;-63
2022/11/24 05:09:28;;;;;;;;;5.00;4.00;;;;;19.97;50.84;100380.05;105677;1297;21874;-64
2022/11/24 05:11:56;;;;;;;;;4.00;4.00;;;;;19.97;50.71;100384.79;105684;1296;19360;-63
2022/11/24 05:14:24;;;;;;;;;7.00;5.00;;;;;19.97;50.90;100391.46;105623;1287;19593;-63
2022/11/24 05:16:51;;;;;;;;;5.00;4.50;;;;;19.97;50.90;100394.77;105673;1294;20260;-63
2022/11/24 05:19:19;;;;;;;;;8.00;7.00;;;;;19.98;50.63;100396.52;105660;1298;19755;-64
2022/11/24 05:21:47;;;;;;;;;5.00;5.00;;;;;19.97;50.75;100391.58;105739;1279;19516;-63
2022/11/24 05:24:14;;;;;;;;;8.00;7.00;;;;;19.97;50.76;100389.77;105697;1297;20319;-63
2022/11/24 05:26:42;;;;;;;;;5.00;4.50;;;;;19.97;50.56;100388.80;105659;1290;19524;-63
2022/11/24 05:29:10;;;;;;;;;5.00;5.00;;;;;19.96;50.67;100393.75;105711;1271;20081;-63
2022/11/24 05:31:37;;;;;;;;;;;;;;;19.97;50.53;100397.39;105671;1279;20086;-63
2022/11/24 05:34:05;;;;;;;;;8.00;7.00;;;;;19.95;50.47;100399.88;105653;1279;19386;-64
2022/11/24 05:39:19;;;;;;;;;5.00;5.00;;;;;19.95;50.64;100404.23;105666;1279;20103;-63
2022/11/24 05:41:46;;;;;;;;;4.00;4.00;;;;;19.94;50.97;100408.56;105669;1272;19196;-63
2022/11/24 05:44:14;;;;;;;;;4.00;4.00;;;;;19.93;50.95;100411.23;105736;1271;19593;-63
2022/11/24 05:46:41;;;;;;;;;4.00;4.00;;;;;19.95;50.81;100417.57;105662;1288;21652;-63
2022/11/24 05:49:09;;;;;;;;;4.00;4.00;;;;;19.94;50.87;100416.97;105698;1279;20730;-64
2022/11/24 05:51:37;;;;;;;;;7.00;5.00;;;;;19.93;50.87;100419.35;105709;1297;19519;-63
2022/11/24 05:54:05;;;;;;;;;2.00;2.00;;;;;19.93;50.82;100420.98;105712;1279;20299;-63
2022/11/24 05:56:32;;;;;;;;;4.00;4.00;;;;;19.93;50.92;100421.90;105689;1288;21485;-64
2022/11/24 05:59:00;;;;;;;;;5.00;4.00;;;;;19.93;51.10;100422.98;105682;1291;19798;-63
2022/11/24 06:01:27;;;;;;;;;3.00;2.00;;;;;19.94;51.15;100422.58;105697;1272;21651;-63
2022/11/24 06:03:55;;;;;;;;;2.00;2.00;;;;;19.93;50.85;100425.20;105657;1279;23220;-63
2022/11/24 06:06:22;;;;;;;;;4.00;4.00;;;;;19.93;50.98;100425.57;105733;1278;19464;-63
2022/11/24 06:08:49;;;;;;;;;4.00;4.00;;;;;19.93;50.96;100430.13;105660;1294;20149;-63
2022/11/24 06:11:21;;;;;;;;;7.00;7.00;;;;;19.92;51.08;100428.08;105678;1288;19388;-63
2022/11/24 06:13:48;;;;;;;;;4.00;4.00;;;;;19.93;51.00;100425.54;105689;1279;21939;-63
2022/11/24 06:16:16;;;;;;;;;4.50;4.00;;;;;19.93;50.90;100423.06;105645;1280;23388;-63
2022/11/24 06:18:43;;;;;;;;;2.00;2.00;;;;;19.92;50.87;100428.59;105678;1288;23797;-64
2022/11/24 06:21:11;;;;;;;;;5.00;4.00;;;;;19.94;51.25;100426.52;105674;1295;19545;-63
2022/11/24 06:23:39;;;;;;;;;5.00;5.00;;;;;19.95;51.36;100428.58;105703;1271;20884;-63
2022/11/24 06:26:08;;;;;;;;;4.50;4.00;;;;;19.95;51.44;100430.55;105687;1281;21752;-64
2022/11/24 06:28:36;;;;;;;;;34.00;31.00;;;;;19.99;51.23;100431.00;105666;1287;20490;-64
2022/11/24 06:31:03;;;;;;;;;123.50;107.00;;;;;20.04;51.47;100427.95;105647;1287;20849;-63
2022/11/24 06:33:32;;;;;;;;;107.00;89.00;;;;;20.02;52.26;100433.89;105637;1274;19117;-62
2022/11/24 06:36:01;;;;;;;;;103.50;81.00;;;;;20.06;52.53;100437.63;105524;1273;21127;-63
2022/11/24 06:38:29;;;;;;;;;;;;;;;20.10;52.53;100438.45;105922;1279;20074;-60
2022/11/24 06:40:56;;;;;;;;;;;;;;;20.09;52.43;100435.96;105624;1281;19202;-60
2022/11/24 06:43:24;;;;;;;;;80.00;62.00;;;;;20.09;52.67;100433.81;105672;1289;23082;-61
2022/11/24 06:45:51;;;;;;;;;71.50;56.00;;;;;20.10;52.74;100436.65;105649;1279;21042;-60
2022/11/24 06:48:19;;;;;;;;;63.00;50.50;;;;;20.11;52.44;100437.98;105748;1295;23615;-61
2022/11/24 06:50:46;;;;;;;;;49.00;43.00;;;;;20.10;52.66;100443.02;105673;1274;19484;-63
2022/11/24 06:53:14;;;;;;;;;42.50;40.00;;;;;20.10;52.92;100439.20;105659;1279;20928;-61
2022/11/24 06:55:41;;;;;;;;;40.00;38.00;;;;;20.06;52.76;100438.27;105686;1288;19256;-63
2022/11/24 06:58:09;;;;;;;;;34.00;32.00;;;;;20.03;52.99;100448.52;105707;1272;20372;-63
2022/11/24 07:00:36;;;;;;;;;28.00;26.00;;;;;20.01;52.93;100448.33;105674;1279;23254;-64
2022/11/24 07:03:04;;;;;;;;;26.50;24.50;;;;;19.97;53.12;100454.04;105739;1272;19682;-60
2022/11/24 07:05:31;;;;;;;;;22.00;21.00;;;;;19.96;53.01;100455.33;105695;1279;19580;-63
2022/11/24 07:07:59;;;;;;;;;22.00;21.00;;;;;19.99;52.86;100453.48;105674;1279;20398;-60
2022/11/24 07:10:27;;;;;;;;;24.00;21.00;;;;;19.99;52.71;100450.40;105547;1295;20295;-61
2022/11/24 07:12:54;;;;;;;;;18.00;17.00;;;;;19.97;52.91;100452.27;105584;1288;24164;-60
2022/11/24 07:15:22;;;;;;;;;11.00;11.00;;;;;19.92;52.80;100447.42;105708;1297;20296;-61
2022/11/24 07:17:49;;;;;;;;;17.00;14.00;;;;;19.91;52.91;100450.80;105649;1297;23461;-61
2022/11/24 07:20:17;;;;;;;;;12.00;11.00;;;;;19.93;53.01;100452.59;105689;1288;19346;-62
2022/11/24 07:22:45;;;;;;;;;13.00;12.00;;;;;19.97;52.73;100458.65;105626;1271;20440;-64
2022/11/24 07:25:13;;;;;;;;;14.00;11.00;;;;;19.96;52.64;100458.31;105667;1279;24493;-61
2022/11/24 07:27:40;;;;;;;;;14.00;12.00;;;;;19.97;52.67;100462.29;105655;1271;19634;-62
2022/11/24 07:30:08;;;;;;;;;14.00;12.00;;;;;19.95;52.68;100464.79;105641;1295;20012;-62
2022/11/24 07:32:35;;;;;;;;;17.00;15.00;;;;;19.95;52.60;100472.77;105619;1271;23136;-62
2022/11/24 07:35:03;;;;;;;;;11.00;10.00;;;;;19.97;52.58;100484.39;105609;1289;19413;-62
2022/11/24 07:37:30;;;;;;;;;;;;;;;19.97;52.72;100477.70;105562;1272;20477;-61
2022/11/24 07:39:58;;;;;;;;;12.50;11.50;;;;;19.97;52.58;100474.98;105645;1297;19280;-62
2022/11/24 07:42:26;;;;;;;;;;;;;;;19.97;52.54;100477.79;105641;1295;22998;-61
2022/11/24 07:44:54;;;;;;;;;11.00;10.50;;;;;19.97;52.37;100476.23;105614;1289;21740;-61
2022/11/24 07:47:21;;;;;;;;;10.00;10.00;;;;;19.94;52.34;100484.31;105621;1279;19398;-62
2022/11/24 07:49:48;;;;;;;;;10.00;10.00;;;;;19.96;52.51;100489.43;105640;1279;19538;-62
2022/11/24 07:52:16;;;;;;;;;14.50;11.00;;;;;19.97;52.30;100491.29;105637;1279;23068;-61
2022/11/24 07:54:44;;;;;;;;;8.00;7.00;;;;;19.95;52.30;100491.11;105667;1296;22683;-61
2022/11/24 07:57:12;;;;;;;;;12.00;10.00;;;;;19.95;52.31;100489.98;105690;1295;23545;-62
2022/11/24 07:59:40;;;;;;;;;7.00;7.00;;;;;19.98;52.23;100485.20;105723;1272;23816;-62
2022/11/24 08:02:08;;;;;;;;;9.00;9.00;;;;;20.01;52.35;100485.70;105674;1279;19425;-63
2022/11/24 08:04:36;;;;;;;;;10.00;8.00;;;;;20.03;52.34;100482.28;105633;1288;23429;-63
2022/11/24 08:07:04;;;;;;;;;12.50;10.50;;;;;20.05;52.37;100481.13;105513;1290;21704;-63
2022/11/24 08:09:31;;;;;;;;;10.00;9.00;;;;;20.06;52.09;100482.62;105662;1295;22389;-62
2022/11/24 08:11:59;;;;;;;;;;;;;;;20.07;52.41;100486.77;105651;1297;20760;-62
2022/11/24 08:14:26;;;;;;;;;8.00;7.00;;;;;20.06;52.40;100480.85;105632;1287;20459;-62
2022/11/24 08:16:54;;;;;;;;;10.00;8.00;;;;;20.09;52.98;100487.81;105640;1278;19110;-63
2022/11/24 08:19:22;;;;;;;;;7.00;7.00;;;;;20.09;52.97;100495.30;105609;1271;19332;-62
2022/11/24 08:21:50;;;;;;;;;8.00;8.00;;;;;20.12;53.00;100493.34;105635;1267;21496;-63
2022/11/24 08:24:18;;;;;;;;;8.00;8.00;;;;;20.14;53.22;100494.45;105747;1289;19956;-63
2022/11/24 08:26:47;;;;;;;;;;;;;;;20.12;53.27;100490.95;105651;1289;19313;-63
2022/11/24 08:29:14;;;;;;;;;8.00;7.50;;;;;20.12;53.58;100496.77;105622;1272;22999;-62
2022/11/24 08:31:42;;;;;;;;;8.00;7.00;;;;;20.13;53.89;100497.07;105613;1274;24140;-61
2022/11/24 08:34:09;;;;;;;;;11.50;10.00;;;;;20.13;53.84;100495.61;105644;1302;19570;-62
2022/11/24 08:36:37;;;;;;;;;10.00;7.00;;;;;20.14;54.18;100499.14;105533;1271;20602;-63
2022/11/24 08:39:05;;;;;;;;;8.50;8.50;;;;;20.14;54.19;100502.57;105632;1279;23578;-64
2022/11/24 08:41:32;;;;;;;;;10.00;8.00;;;;;20.12;54.15;100505.48;105512;1271;19582;-63
2022/11/24 08:44:00;;;;;;;;;8.00;7.00;;;;;20.13;53.81;100505.44;105555;1279;22805;-64
2022/11/24 08:46:27;;;;;;;;;11.00;11.00;;;;;20.13;53.75;100504.83;105652;1272;23000;-63
2022/11/24 08:48:54;;;;;;;;;11.00;9.00;;;;;20.14;53.69;100501.31;105615;1271;21127;-64
2022/11/24 08:51:22;;;;;;;;;8.50;7.00;;;;;20.13;53.67;100502.72;105646;1297;21676;-62
2022/11/24 08:53:49;;;;;;;;;5.00;5.00;;;;;20.11;53.70;100510.89;105525;1279;19722;-63
2022/11/24 08:56:17;;;;;;;;;9.00;8.00;;;;;20.12;53.78;100513.16;105568;1289;20732;-63
2022/11/24 08:58:44;;;;;;;;;;;;;;;20.11;53.85;100515.86;105554;1272;20069;-63
2022/11/24 09:01:12;;;;;;;;;10.00;10.00;;;;;20.15;54.31;100509.74;105514;1272;19186;-64
2022/11/24 09:03:39;;;;;;;;;8.00;7.00;;;;;20.16;54.52;100505.80;105595;1279;23016;-64
2022/11/24 09:06:07;;;;;;;;;7.00;6.00;;;;;20.17;54.47;100515.41;105612;1297;21214;-64
2022/11/24 09:08:35;;;;;;;;;6.00;6.00;;;;;20.16;54.46;100516.40;105634;1279;19106;-63
2022/11/24 09:11:02;;;;;;;;;5.00;5.00;;;;;20.15;54.77;100509.11;105627;1279;19542;-61
2022/11/24 09:13:30;;;;;;;;;7.00;7.00;;;;;20.15;54.56;100504.80;105640;1289;20132;-62
2022/11/24 09:15:57;;;;;;;;;4.50;4.00;;;;;20.14;54.62;100500.15;105630;1281;19343;-61
2022/11/24 09:18:25;;;;;;;;;7.00;7.00;;;;;20.15;54.37;100501.34;105676;1272;19965;-61
2022/11/24 09:20:56;;;;;;;;;8.00;7.00;;;;;20.14;54.27;100505.63;105629;1279;22904;-61
2022/11/24 09:23:23;;;;;;;;;7.00;7.00;;;;;20.14;54.07;100504.54;105593;1272;19903;-62
2022/11/24 09:25:51;;;;;;;;;7.00;7.00;;;;;20.13;54.40;100498.13;105643;1271;21076;-62
2022/11/24 09:28:18;;;;;;;;;7.00;7.00;;;;;20.14;54.72;100501.73;105611;1292;23007;-62
2022/11/24 09:30:46;;;;;;;;;7.00;7.00;;;;;20.14;54.63;100503.32;105561;1271;21679;-62
2022/11/24 09:33:13;;;;;;;;;7.50;7.00;;;;;20.16;54.93;100500.70;105674;1297;19536;-60
2022/11/24 09:35:40;;;;;;;;;7.00;6.00;;;;;20.18;54.91;100507.93;105658;1288;22037;-61
2022/11/24 09:38:09;;;;;;;;;5.00;5.00;;;;;20.19;54.86;100513.39;105654;1271;24703;-60
2022/11/24 09:40:36;;;;;;;;;7.00;5.00;;;;;20.20;54.87;100515.96;105581;1279;21471;-59
2022/11/24 09:43:04;;;;;;;;;5.00;5.00;;;;;20.18;55.03;100511.84;105682;1272;20397;-59
2022/11/24 09:45:31;;;;;;;;;;;;;;;20.16;54.83;100513.71;105679;1276;23616;-60
2022/11/24 09:47:59;;;;;;;;;6.00;5.00;;;;;20.18;54.65;100511.70;105694;1295;20622;-61
2022/11/24 09:50:26;;;;;;;;;5.00;5.00;;;;;20.18;54.86;100510.38;105712;1279;23142;-62
2022/11/24 09:52:58;;;;;;;;;;;;;;;20.19;54.63;100507.61;105687;1279;19629;-61
2022/11/24 09:55:25;;;;;;;;;;;;;;;20.20;54.75;100510.19;105661;1271;19009;-63
2022/11/24 09:57:54;;;;;;;;;5.50;4.50;;;;;20.19;54.82;100515.02;105640;1279;20372;-63
2022/11/24 10:00:21;;;;;;;;;7.50;7.50;;;;;20.18;54.66;100517.52;105660;1288;19261;-61
2022/11/24 10:02:49;;;;;;;;;7.50;7.00;;;;;20.18;54.67;100521.84;105641;1279;19271;-60
2022/11/24 10:05:17;;;;;;;;;8.00;7.00;;;;;20.17;54.75;100525.58;105669;1296;20288;-61
2022/11/24 10:07:44;;;;;;;;;7.00;7.00;;;;;20.16;54.61;100526.23;105619;1280;19208;-62
2022/11/24 10:10:12;;;;;;;;;;;;;;;20.16;54.19;100529.70;105690;1272;19580;-62
2022/11/24 10:12:39;;;;;;;;;8.00;7.00;;;;;20.16;54.20;100528.46;105650;1281;20255;-62
2022/11/24 10:15:07;;;;;;;;;7.67;7.33;;;;;20.15;54.22;100526.88;105696;1297;19244;-62
2022/11/24 10:17:35;;;;;;;;;10.50;7.50;;;;;20.16;53.72;100520.25;105678;1279;22981;-62
2022/11/24 10:20:03;;;;;;;;;7.00;7.00;;;;;20.15;53.49;100522.70;105650;1279;20068;-62
2022/11/24 10:22:31;;;;;;;;;8.00;7.00;;;;;20.16;53.64;100522.48;105604;1275;19086;-61
2022/11/24 10:24:59;;;;;;;;;;;;;;;20.16;53.69;100526.84;105662;1271;20853;-61
2022/11/24 10:27:27;;;;;;;;;12.00;11.00;;;;;20.17;53.87;100532.16;105658;1279;20116;-59
2022/11/24 10:29:54;;;;;;;;;11.00;9.00;;;;;20.18;53.35;100521.80;105514;1279;19436;-61
2022/11/24 10:32:22;;;;;;;;;8.50;7.50;;;;;20.18;52.79;100520.92;105609;1272;19635;-61
2022/11/24 10:34:50;;;;;;;;;8.00;8.00;;;;;20.18;52.85;100510.61;105593;1279;21589;-62
2022/11/24 10:37:18;;;;;;;;;7.50;7.50;;;;;20.16;52.84;100512.63;105655;1279;19074;-63
2022/11/24 10:39:46;;;;;;;;;7.00;5.00;;;;;20.16;53.08;100514.46;105683;1279;19268;-63
2022/11/24 10:42:14;;;;;;;;;7.50;7.00;;;;;20.17;52.76;100510.05;105673;1297;20248;-62
2022/11/24 10:44:42;;;;;;;;;7.50;7.00;;;;;20.16;53.19;100508.48;105609;1295;19645;-63
2022/11/24 10:47:11;;;;;;;;;8.50;8.50;;;;;20.16;52.88;100500.66;105643;1288;19550;-62
2022/11/24 10:49:39;;;;;;;;;7.00;7.00;;;;;20.16;52.93;100497.02;105660;1279;20075;-63
2022/11/24 10:52:07;;;;;;;;;7.00;7.00;;;;;20.16;52.61;100498.11;105634;1286;19298;-63
2022/11/24 10:54:35;;;;;;;;;11.00;7.50;;;;;20.17;52.69;100499.30;105647;1279;19627;-62
2022/11/24 10:57:03;;;;;;;;;5.00;5.00;;;;;20.19;52.61;100500.20;105690;1295;20930;-63
2022/11/24 10:59:31;;;;;;;;;11.00;8.00;;;;;20.18;52.79;100501.73;105707;1288;19235;-62
2022/11/24 11:01:59;;;;;;;;;7.00;7.00;;;;;20.17;52.69;100503.07;105615;1279;19545;-62
2022/11/24 11:04:27;;;;;;;;;;;;;;;20.18;52.83;100508.73;105678;1279;20336;-63
2022/11/24 11:06:54;;;;;;;;;8.00;7.00;;;;;20.17;52.52;100514.66;105563;1279;23671;-63
2022/11/24 11:09:22;;;;;;;;;7.00;7.00;;;;;20.16;52.59;100516.34;105613;1280;19857;-63
2022/11/24 11:11:50;;;;;;;;;5.00;5.00;;;;;20.15;52.65;100526.60;105632;1296;20155;-63
2022/11/24 11:14:17;;;;;;;;;5.00;5.00;;;;;20.13;52.83;100532.65;105628;1289;24172;-63
2022/11/24 11:16:45;;;;;;;;;7.00;7.00;;;;;20.12;52.80;100537.28;105626;1271;19277;-63
2022/11/24 11:19:12;;;;;;;;;5.00;5.00;;;;;20.11;52.75;100531.95;105637;1295;20375;-63
2022/11/24 11:21:40;;;;;;;;;5.00;5.00;;;;;20.11;52.72;100529.92;105608;1281;20755;-62
2022/11/24 11:24:07;;;;;;;;;5.00;5.00;;;;;20.08;52.74;100531.33;105635;1301;21615;-62
2022/11/24 11:26:35;;;;;;;;;6.00;5.00;;;;;20.09;52.64;100535.31;105651;1296;20441;-63